| Back to River Map | <<< Previous Forecast Point | | | Next Forecast Point >>> | Printer Version | Graph Version |  |
|
LAGUNA DE SANTA ROSA - COTATI AT STONY POINT ROAD (CTIC1)
| Latitude: 38.35º N | Longitude: 122.74º W | Elevation: 78 Feet | | Forecast Type: Unofficial Location |
| Location: Sonoma County in California | Bulletin Group: Russian Napa | River Group: Russian Napa |
| Issuance Time: | May 08 2026 at 8:25 AM PDT | Next Issuance: | May 09 2026 at 9:00 AM PDT
| |
| Action/Monitor: 82.0 Feet | Minor Flood: 84.0 Feet | Moderate Flood: 85.0 Feet | Major Flood: 89.0 Feet |
# Tabular Observed and Forecast Hydrograph Information
#
# Location: Laguna De Santa Rosa - Cotati at Stony Point Road (CTIC1)
#
# File Generation Time: 05/08/2026 at 08:26 AM PDT
# Data Interval: 1 Hour
#
# Most Recent Date & Time of Maximum Observed: 05/05/2026 at 08:00 AM PDT
# Maximum Observed Stage: 75.96 Feet
# Maximum Observed Flow: 28 cfs
#
# Earliest Date & Time of Maximum Forecast: 05/08/2026 at 09:00 AM PDT
# Maximum Forecast Stage: 74.61 Feet
# Maximum Forecast Flow: 6 cfs
#
# OBSERVED
#
# Date & Time (Local) Stage (Feet) Flow (cfs) Trend Observed Status
# ---------------------------------------------------------------------------------
05/03/2026 08 AM PDT 74.61 6 Normal
05/03/2026 09 AM PDT 74.61 6 0 Normal
05/03/2026 10 AM PDT 74.63 6 + Normal
05/03/2026 11 AM PDT 74.61 6 - Normal
05/03/2026 12 PM PDT 74.62 6 + Normal
05/03/2026 01 PM PDT 74.63 6 + Normal
05/03/2026 02 PM PDT 74.62 6 - Normal
05/03/2026 03 PM PDT 74.62 6 0 Normal
05/03/2026 04 PM PDT 74.60 6 - Normal
05/03/2026 05 PM PDT 74.61 6 + Normal
05/03/2026 06 PM PDT 74.59 6 - Normal
05/03/2026 07 PM PDT 74.59 6 0 Normal
05/03/2026 08 PM PDT 74.60 6 + Normal
05/03/2026 09 PM PDT 74.59 6 - Normal
05/03/2026 10 PM PDT 74.58 6 - Normal
05/03/2026 11 PM PDT 74.58 6 0 Normal
05/04/2026 12 AM PDT 74.59 6 + Normal
05/04/2026 01 AM PDT 74.59 6 0 Normal
05/04/2026 02 AM PDT 74.58 6 - Normal
05/04/2026 03 AM PDT 74.57 5 - Normal
05/04/2026 04 AM PDT 74.57 5 0 Normal
05/04/2026 05 AM PDT 74.57 5 0 Normal
05/04/2026 06 AM PDT 74.57 5 0 Normal
05/04/2026 07 AM PDT 74.57 5 0 Normal
05/04/2026 08 AM PDT 74.56 5 - Normal
05/04/2026 09 AM PDT 74.56 5 0 Normal
05/04/2026 10 AM PDT 74.56 5 0 Normal
05/04/2026 11 AM PDT 74.55 5 - Normal
05/04/2026 12 PM PDT 74.56 5 + Normal
05/04/2026 01 PM PDT 74.56 5 0 Normal
05/04/2026 02 PM PDT 74.56 5 0 Normal
05/04/2026 03 PM PDT 74.56 5 0 Normal
05/04/2026 04 PM PDT 74.53 5 - Normal
05/04/2026 05 PM PDT 74.52 5 - Normal
05/04/2026 06 PM PDT 74.54 5 + Normal
05/04/2026 07 PM PDT 74.57 5 + Normal
05/04/2026 08 PM PDT 74.63 6 + Normal
05/04/2026 09 PM PDT 74.77 8 + Normal
05/04/2026 10 PM PDT 74.89 9 + Normal
05/04/2026 11 PM PDT 75.01 11 + Normal
05/05/2026 12 AM PDT 75.11 12 + Normal
05/05/2026 01 AM PDT 75.24 14 + Normal
05/05/2026 02 AM PDT 75.44 18 + Normal
05/05/2026 03 AM PDT 75.57 20 + Normal
05/05/2026 04 AM PDT 75.71 23 + Normal
05/05/2026 05 AM PDT 75.84 25 + Normal
05/05/2026 06 AM PDT 75.92 27 + Normal
05/05/2026 07 AM PDT 75.96 28 + Normal
05/05/2026 08 AM PDT 75.96 28 0 Normal
05/05/2026 09 AM PDT 75.93 27 - Normal
05/05/2026 10 AM PDT 75.90 27 - Normal
05/05/2026 11 AM PDT 75.85 26 - Normal
05/05/2026 12 PM PDT 75.79 24 - Normal
05/05/2026 01 PM PDT 75.74 23 - Normal
05/05/2026 02 PM PDT 75.68 22 - Normal
05/05/2026 03 PM PDT 75.61 21 - Normal
05/05/2026 04 PM PDT 75.57 20 - Normal
05/05/2026 05 PM PDT 75.51 19 - Normal
05/05/2026 06 PM PDT 75.46 18 - Normal
05/05/2026 07 PM PDT 75.42 17 - Normal
05/05/2026 08 PM PDT 75.38 17 - Normal
05/05/2026 09 PM PDT 75.34 16 - Normal
05/05/2026 10 PM PDT 75.31 15 - Normal
05/05/2026 11 PM PDT 75.27 15 - Normal
05/06/2026 12 AM PDT 75.24 14 - Normal
05/06/2026 01 AM PDT 75.20 14 - Normal
05/06/2026 02 AM PDT 75.17 13 - Normal
05/06/2026 03 AM PDT 75.14 13 - Normal
05/06/2026 04 AM PDT 75.12 12 - Normal
05/06/2026 05 AM PDT 75.10 12 - Normal
05/06/2026 06 AM PDT 75.07 12 - Normal
05/06/2026 07 AM PDT 75.05 11 - Normal
05/06/2026 08 AM PDT 75.03 11 - Normal
05/06/2026 09 AM PDT 75.02 11 - Normal
05/06/2026 10 AM PDT 75.00 11 - Normal
05/06/2026 11 AM PDT 74.99 11 - Normal
05/06/2026 12 PM PDT 74.98 10 - Normal
05/06/2026 01 PM PDT 74.96 10 - Normal
05/06/2026 02 PM PDT 74.95 10 - Normal
05/06/2026 03 PM PDT 74.93 10 - Normal
05/06/2026 04 PM PDT 74.91 9 - Normal
05/06/2026 05 PM PDT 74.92 10 + Normal
05/06/2026 06 PM PDT 74.89 9 - Normal
05/06/2026 07 PM PDT 74.85 9 - Normal
05/06/2026 08 PM PDT 74.86 9 + Normal
05/06/2026 09 PM PDT 74.84 9 - Normal
05/06/2026 10 PM PDT 74.84 9 0 Normal
05/06/2026 11 PM PDT 74.83 8 - Normal
05/07/2026 12 AM PDT 74.81 8 - Normal
05/07/2026 01 AM PDT 74.80 8 - Normal
05/07/2026 02 AM PDT 74.80 8 0 Normal
05/07/2026 03 AM PDT 74.78 8 - Normal
05/07/2026 04 AM PDT 74.78 8 0 Normal
05/07/2026 05 AM PDT 74.76 8 - Normal
05/07/2026 06 AM PDT 74.75 7 - Normal
05/07/2026 07 AM PDT 74.75 7 0 Normal
05/07/2026 08 AM PDT 74.73 7 - Normal
05/07/2026 09 AM PDT 74.72 7 - Normal
05/07/2026 10 AM PDT 74.72 7 0 Normal
05/07/2026 11 AM PDT 74.73 7 + Normal
05/07/2026 12 PM PDT 74.72 7 - Normal
05/07/2026 01 PM PDT 74.72 7 0 Normal
05/07/2026 02 PM PDT 74.72 7 0 Normal
05/07/2026 03 PM PDT 74.70 7 - Normal
05/07/2026 04 PM PDT 74.70 7 0 Normal
05/07/2026 05 PM PDT 74.70 7 0 Normal
05/07/2026 06 PM PDT 74.68 7 - Normal
05/07/2026 07 PM PDT 74.67 7 - Normal
05/07/2026 08 PM PDT 74.68 7 + Normal
05/07/2026 09 PM PDT 74.68 7 0 Normal
05/07/2026 10 PM PDT 74.67 7 - Normal
05/07/2026 11 PM PDT 74.66 6 - Normal
05/08/2026 12 AM PDT 74.66 6 0 Normal
05/08/2026 01 AM PDT 74.65 6 - Normal
05/08/2026 02 AM PDT 74.65 6 0 Normal
05/08/2026 03 AM PDT 74.64 6 - Normal
05/08/2026 04 AM PDT 74.64 6 0 Normal
05/08/2026 05 AM PDT 74.63 6 - Normal
05/08/2026 06 AM PDT 74.62 6 - Normal
05/08/2026 07 AM PDT 74.62 6 0 Normal
05/08/2026 08 AM PDT 74.62 6 0 Normal
#
# FORECAST
#
# Date & Time (Local) Stage (Feet) Flow (cfs) Trend Forecast Status
# ---------------------------------------------------------------------------------
05/08/2026 09 AM PDT 74.61 6 Normal
05/08/2026 10 AM PDT 74.61 6 0 Normal
05/08/2026 11 AM PDT 74.61 6 0 Normal
05/08/2026 12 PM PDT 74.61 6 0 Normal
05/08/2026 01 PM PDT 74.61 6 0 Normal
05/08/2026 02 PM PDT 74.61 6 0 Normal
05/08/2026 03 PM PDT 74.60 6 - Normal
05/08/2026 04 PM PDT 74.60 6 0 Normal
05/08/2026 05 PM PDT 74.60 6 0 Normal
05/08/2026 06 PM PDT 74.60 6 0 Normal
05/08/2026 07 PM PDT 74.59 6 - Normal
05/08/2026 08 PM PDT 74.59 6 0 Normal
05/08/2026 09 PM PDT 74.59 6 0 Normal
05/08/2026 10 PM PDT 74.59 6 0 Normal
05/08/2026 11 PM PDT 74.58 6 - Normal
05/09/2026 12 AM PDT 74.58 6 0 Normal
05/09/2026 01 AM PDT 74.58 6 0 Normal
05/09/2026 02 AM PDT 74.58 6 0 Normal
05/09/2026 03 AM PDT 74.58 6 0 Normal
05/09/2026 04 AM PDT 74.58 6 0 Normal
05/09/2026 05 AM PDT 74.57 5 - Normal
05/09/2026 06 AM PDT 74.57 5 0 Normal
05/09/2026 07 AM PDT 74.57 5 0 Normal
05/09/2026 08 AM PDT 74.57 5 0 Normal
05/09/2026 09 AM PDT 74.56 5 - Normal
05/09/2026 10 AM PDT 74.56 5 0 Normal
05/09/2026 11 AM PDT 74.56 5 0 Normal
05/09/2026 12 PM PDT 74.56 5 0 Normal
05/09/2026 01 PM PDT 74.56 5 0 Normal
05/09/2026 02 PM PDT 74.55 5 - Normal
05/09/2026 03 PM PDT 74.55 5 0 Normal
05/09/2026 04 PM PDT 74.55 5 0 Normal
05/09/2026 05 PM PDT 74.55 5 0 Normal
05/09/2026 06 PM PDT 74.55 5 0 Normal
05/09/2026 07 PM PDT 74.54 5 - Normal
05/09/2026 08 PM PDT 74.54 5 0 Normal
05/09/2026 09 PM PDT 74.54 5 0 Normal
05/09/2026 10 PM PDT 74.54 5 0 Normal
05/09/2026 11 PM PDT 74.53 5 - Normal
05/10/2026 12 AM PDT 74.53 5 0 Normal
05/10/2026 01 AM PDT 74.53 5 0 Normal
05/10/2026 02 AM PDT 74.53 5 0 Normal
05/10/2026 03 AM PDT 74.53 5 0 Normal
05/10/2026 04 AM PDT 74.52 5 - Normal
05/10/2026 05 AM PDT 74.52 5 0 Normal
05/10/2026 06 AM PDT 74.52 5 0 Normal
05/10/2026 07 AM PDT 74.52 5 0 Normal
05/10/2026 08 AM PDT 74.51 5 - Normal
05/10/2026 09 AM PDT 74.51 5 0 Normal
05/10/2026 10 AM PDT 74.51 5 0 Normal
05/10/2026 11 AM PDT 74.51 5 0 Normal
05/10/2026 12 PM PDT 74.51 5 0 Normal
05/10/2026 01 PM PDT 74.50 5 - Normal
05/10/2026 02 PM PDT 74.50 5 0 Normal
05/10/2026 03 PM PDT 74.50 5 0 Normal
05/10/2026 04 PM PDT 74.50 5 0 Normal
05/10/2026 05 PM PDT 74.49 5 - Normal
05/10/2026 06 PM PDT 74.49 5 0 Normal
05/10/2026 07 PM PDT 74.49 5 0 Normal
05/10/2026 08 PM PDT 74.49 5 0 Normal
05/10/2026 09 PM PDT 74.48 5 - Normal
05/10/2026 10 PM PDT 74.48 5 0 Normal
05/10/2026 11 PM PDT 74.48 5 0 Normal
05/11/2026 12 AM PDT 74.48 5 0 Normal
05/11/2026 01 AM PDT 74.48 5 0 Normal
05/11/2026 02 AM PDT 74.47 5 - Normal
05/11/2026 03 AM PDT 74.47 5 0 Normal
05/11/2026 04 AM PDT 74.47 5 0 Normal
05/11/2026 05 AM PDT 74.47 5 0 Normal
05/11/2026 06 AM PDT 74.46 4 - Normal
05/11/2026 07 AM PDT 74.46 4 0 Normal
05/11/2026 08 AM PDT 74.46 4 0 Normal
05/11/2026 09 AM PDT 74.46 4 0 Normal
05/11/2026 10 AM PDT 74.45 4 - Normal
05/11/2026 11 AM PDT 74.45 4 0 Normal
05/11/2026 12 PM PDT 74.45 4 0 Normal
05/11/2026 01 PM PDT 74.45 4 0 Normal
05/11/2026 02 PM PDT 74.45 4 0 Normal
05/11/2026 03 PM PDT 74.44 4 - Normal
05/11/2026 04 PM PDT 74.44 4 0 Normal
05/11/2026 05 PM PDT 74.44 4 0 Normal
05/11/2026 06 PM PDT 74.44 4 0 Normal
05/11/2026 07 PM PDT 74.43 4 - Normal
05/11/2026 08 PM PDT 74.43 4 0 Normal
05/11/2026 09 PM PDT 74.43 4 0 Normal
05/11/2026 10 PM PDT 74.43 4 0 Normal
05/11/2026 11 PM PDT 74.42 4 - Normal
05/12/2026 12 AM PDT 74.42 4 0 Normal
05/12/2026 01 AM PDT 74.42 4 0 Normal
05/12/2026 02 AM PDT 74.42 4 0 Normal
05/12/2026 03 AM PDT 74.42 4 0 Normal
05/12/2026 04 AM PDT 74.41 4 - Normal
05/12/2026 05 AM PDT 74.41 4 0 Normal
05/12/2026 06 AM PDT 74.41 4 0 Normal
05/12/2026 07 AM PDT 74.41 4 0 Normal
05/12/2026 08 AM PDT 74.41 4 0 Normal
05/12/2026 09 AM PDT 74.40 4 - Normal
05/12/2026 10 AM PDT 74.40 4 0 Normal
05/12/2026 11 AM PDT 74.40 4 0 Normal
05/12/2026 12 PM PDT 74.39 4 - Normal
05/12/2026 01 PM PDT 74.39 4 0 Normal
05/12/2026 02 PM PDT 74.39 4 0 Normal
05/12/2026 03 PM PDT 74.39 4 0 Normal
05/12/2026 04 PM PDT 74.38 4 - Normal
05/12/2026 05 PM PDT 74.38 4 0 Normal
05/12/2026 06 PM PDT 74.38 4 0 Normal
05/12/2026 07 PM PDT 74.38 4 0 Normal
05/12/2026 08 PM PDT 74.38 4 0 Normal
05/12/2026 09 PM PDT 74.37 4 - Normal
05/12/2026 10 PM PDT 74.37 4 0 Normal
05/12/2026 11 PM PDT 74.37 4 0 Normal
05/13/2026 12 AM PDT 74.36 4 - Normal
05/13/2026 01 AM PDT 74.36 4 0 Normal
05/13/2026 02 AM PDT 74.36 4 0 Normal
05/13/2026 03 AM PDT 74.36 4 0 Normal
05/13/2026 04 AM PDT 74.35 3 - Normal
05/13/2026 05 AM PDT 74.35 3 0 Normal
#
# NOTE 1: Stages are rounded to the nearest hundredth (.01) of a foot.
# NOTE 2: Flows are rounded to the nearest (1) cfs.
# NOTE 3: Trends are determined using hourly change in unrounded stage and flow.
# NOTE 4: Maximum Values are determined using unrounded stage and flow.
|